Terminal Aerodrome Forecast
Issued by NWS Charleston, WV

Current Version | Previous Version | Graphics & Text | Print | Product List | Glossary On
Versions: 1 2 3 4 5 6 7 8 9 10 11 12 13 14 15 16 17 18 19 20 21
000
FTUS41 KRLX 211500 AAA
TAFHTS
TAF AMD
KHTS 211522Z 2115/2212 22007KT P6SM BKN250
     FM221000 23005KT P6SM SHRA OVC035=

USA.gov is the U.S. government's official web portal to all federal, state and local government web resources and services.